sensor_id;sensor_type;location;lat;lon;timestamp;P1;durP1;ratioP1;P2;durP2;ratioP2
7737;SDS011;29398;45.328;5.558;2023-04-04T00:00:30;6.68;;;5.90;;
7737;SDS011;29398;45.328;5.558;2023-04-04T00:01:32;7.60;;;6.07;;
7737;SDS011;29398;45.328;5.558;2023-04-04T00:02:33;6.75;;;6.00;;
7737;SDS011;29398;45.328;5.558;2023-04-04T00:03:35;6.65;;;6.03;;
7737;SDS011;29398;45.328;5.558;2023-04-04T00:04:36;7.10;;;5.18;;
7737;SDS011;29398;45.328;5.558;2023-04-04T00:05:38;6.22;;;5.63;;
7737;SDS011;29398;45.328;5.558;2023-04-04T00:06:39;6.25;;;5.65;;
7737;SDS011;29398;45.328;5.558;2023-04-04T00:07:46;5.72;;;5.20;;
7737;SDS011;29398;45.328;5.558;2023-04-04T00:08:47;5.55;;;5.05;;
7737;SDS011;29398;45.328;5.558;2023-04-04T00:09:49;6.93;;;5.22;;
7737;SDS011;29398;45.328;5.558;2023-04-04T00:10:55;6.68;;;5.50;;
7737;SDS011;29398;45.328;5.558;2023-04-04T00:11:58;6.15;;;4.88;;
7737;SDS011;29398;45.328;5.558;2023-04-04T00:12:59;5.72;;;5.20;;
7737;SDS011;29398;45.328;5.558;2023-04-04T00:14:02;5.72;;;5.07;;
7737;SDS011;29398;45.328;5.558;2023-04-04T00:15:05;6.22;;;5.00;;
7737;SDS011;29398;45.328;5.558;2023-04-04T00:16:07;5.75;;;5.15;;
7737;SDS011;29398;45.328;5.558;2023-04-04T00:17:09;5.93;;;5.03;;
7737;SDS011;29398;45.328;5.558;2023-04-04T00:18:11;7.03;;;5.47;;
7737;SDS011;29398;45.328;5.558;2023-04-04T00:19:12;5.78;;;5.18;;
7737;SDS011;29398;45.328;5.558;2023-04-04T00:20:17;5.82;;;5.22;;
7737;SDS011;29398;45.328;5.558;2023-04-04T00:21:18;5.55;;;5.05;;
7737;SDS011;29398;45.328;5.558;2023-04-04T00:22:20;5.63;;;5.13;;
7737;SDS011;29398;45.328;5.558;2023-04-04T00:23:23;5.20;;;4.80;;
7737;SDS011;29398;45.328;5.558;2023-04-04T00:24:25;5.72;;;5.22;;
7737;SDS011;29398;45.328;5.558;2023-04-04T00:25:26;5.72;;;4.97;;
7737;SDS011;29398;45.328;5.558;2023-04-04T00:26:28;5.60;;;5.10;;
7737;SDS011;29398;45.328;5.558;2023-04-04T00:27:29;5.68;;;5.18;;
7737;SDS011;29398;45.328;5.558;2023-04-04T00:28:31;5.32;;;4.82;;
7737;SDS011;29398;45.328;5.558;2023-04-04T00:29:32;5.80;;;5.25;;
7737;SDS011;29398;45.328;5.558;2023-04-04T00:30:34;4.63;;;4.22;;
7737;SDS011;29398;45.328;5.558;2023-04-04T00:31:35;5.20;;;4.70;;
7737;SDS011;29398;45.328;5.558;2023-04-04T00:32:38;5.78;;;5.05;;
7737;SDS011;29398;45.328;5.558;2023-04-04T00:33:39;5.28;;;4.80;;
7737;SDS011;29398;45.328;5.558;2023-04-04T00:34:41;5.07;;;4.68;;
7737;SDS011;29398;45.328;5.558;2023-04-04T00:35:42;5.05;;;4.60;;
7737;SDS011;29398;45.328;5.558;2023-04-04T00:36:44;5.50;;;5.00;;
7737;SDS011;29398;45.328;5.558;2023-04-04T00:37:45;5.28;;;4.82;;
7737;SDS011;29398;45.328;5.558;2023-04-04T00:38:49;5.85;;;4.93;;
7737;SDS011;29398;45.328;5.558;2023-04-04T00:39:51;5.45;;;4.95;;
7737;SDS011;29398;45.328;5.558;2023-04-04T00:40:53;4.85;;;4.43;;
7737;SDS011;29398;45.328;5.558;2023-04-04T00:41:55;5.68;;;5.00;;
7737;SDS011;29398;45.328;5.558;2023-04-04T00:42:58;5.95;;;5.45;;
7737;SDS011;29398;45.328;5.558;2023-04-04T00:43:59;5.68;;;5.18;;
7737;SDS011;29398;45.328;5.558;2023-04-04T00:45:01;7.43;;;5.68;;
7737;SDS011;29398;45.328;5.558;2023-04-04T00:46:03;6.35;;;5.75;;
7737;SDS011;29398;45.328;5.558;2023-04-04T00:47:05;6.72;;;5.55;;
7737;SDS011;29398;45.328;5.558;2023-04-04T00:48:06;6.28;;;5.78;;
7737;SDS011;29398;45.328;5.558;2023-04-04T00:49:09;6.63;;;6.03;;
7737;SDS011;29398;45.328;5.558;2023-04-04T00:50:10;5.88;;;5.30;;
7737;SDS011;29398;45.328;5.558;2023-04-04T00:51:12;6.53;;;5.30;;
7737;SDS011;29398;45.328;5.558;2023-04-04T00:52:13;6.32;;;5.72;;
7737;SDS011;29398;45.328;5.558;2023-04-04T00:53:16;6.28;;;5.68;;
7737;SDS011;29398;45.328;5.558;2023-04-04T00:54:18;6.68;;;6.07;;
7737;SDS011;29398;45.328;5.558;2023-04-04T00:55:21;6.25;;;5.65;;
7737;SDS011;29398;45.328;5.558;2023-04-04T00:56:22;6.47;;;5.88;;
7737;SDS011;29398;45.328;5.558;2023-04-04T00:57:25;5.88;;;5.20;;
7737;SDS011;29398;45.328;5.558;2023-04-04T00:58:28;5.70;;;5.10;;
7737;SDS011;29398;45.328;5.558;2023-04-04T00:59:30;5.15;;;4.75;;
7737;SDS011;29398;45.328;5.558;2023-04-04T01:00:32;4.97;;;4.47;;
7737;SDS011;29398;45.328;5.558;2023-04-04T01:01:35;5.40;;;4.78;;
7737;SDS011;29398;45.328;5.558;2023-04-04T01:02:36;5.10;;;4.70;;
7737;SDS011;29398;45.328;5.558;2023-04-04T01:03:39;5.20;;;4.70;;
7737;SDS011;29398;45.328;5.558;2023-04-04T01:04:40;5.32;;;4.82;;
7737;SDS011;29398;45.328;5.558;2023-04-04T01:05:43;5.38;;;4.88;;
7737;SDS011;29398;45.328;5.558;2023-04-04T01:06:44;5.63;;;4.85;;
7737;SDS011;29398;45.328;5.558;2023-04-04T01:07:46;4.82;;;4.43;;
7737;SDS011;29398;45.328;5.558;2023-04-04T01:08:47;5.20;;;4.47;;
7737;SDS011;29398;45.328;5.558;2023-04-04T01:09:52;6.03;;;4.40;;
7737;SDS011;29398;45.328;5.558;2023-04-04T01:10:56;5.20;;;4.80;;
7737;SDS011;29398;45.328;5.558;2023-04-04T01:11:58;5.45;;;4.95;;
7737;SDS011;29398;45.328;5.558;2023-04-04T01:13:04;5.00;;;4.60;;
7737;SDS011;29398;45.328;5.558;2023-04-04T01:14:06;5.47;;;4.60;;
7737;SDS011;29398;45.328;5.558;2023-04-04T01:15:08;5.00;;;4.50;;
7737;SDS011;29398;45.328;5.558;2023-04-04T01:16:10;5.20;;;4.70;;
7737;SDS011;29398;45.328;5.558;2023-04-04T01:17:11;5.40;;;4.90;;
7737;SDS011;29398;45.328;5.558;2023-04-04T01:18:14;5.18;;;4.68;;
7737;SDS011;29398;45.328;5.558;2023-04-04T01:19:21;5.43;;;4.93;;
7737;SDS011;29398;45.328;5.558;2023-04-04T01:20:29;5.20;;;4.80;;
7737;SDS011;29398;45.328;5.558;2023-04-04T01:21:33;5.10;;;4.45;;
7737;SDS011;29398;45.328;5.558;2023-04-04T01:22:36;5.78;;;5.28;;
7737;SDS011;29398;45.328;5.558;2023-04-04T01:23:42;5.47;;;4.55;;
7737;SDS011;29398;45.328;5.558;2023-04-04T01:24:50;5.05;;;4.65;;
7737;SDS011;29398;45.328;5.558;2023-04-04T01:26:01;4.75;;;4.35;;
7737;SDS011;29398;45.328;5.558;2023-04-04T01:27:05;5.45;;;4.95;;
7737;SDS011;29398;45.328;5.558;2023-04-04T01:28:11;5.15;;;4.65;;
7737;SDS011;29398;45.328;5.558;2023-04-04T01:29:14;5.32;;;4.82;;
7737;SDS011;29398;45.328;5.558;2023-04-04T01:30:16;5.32;;;4.82;;
7737;SDS011;29398;45.328;5.558;2023-04-04T01:31:20;5.05;;;4.55;;
7737;SDS011;29398;45.328;5.558;2023-04-04T01:32:28;4.85;;;4.40;;
7737;SDS011;29398;45.328;5.558;2023-04-04T01:33:37;4.97;;;4.47;;
7737;SDS011;29398;45.328;5.558;2023-04-04T01:34:43;5.05;;;4.55;;
7737;SDS011;29398;45.328;5.558;2023-04-04T01:35:55;5.05;;;4.57;;
7737;SDS011;29398;45.328;5.558;2023-04-04T01:37:03;6.30;;;4.68;;
7737;SDS011;29398;45.328;5.558;2023-04-04T01:38:12;5.53;;;4.20;;
7737;SDS011;29398;45.328;5.558;2023-04-04T01:39:20;5.38;;;4.88;;
7737;SDS011;29398;45.328;5.558;2023-04-04T01:40:25;5.00;;;4.60;;
7737;SDS011;29398;45.328;5.558;2023-04-04T01:41:35;5.45;;;4.95;;
7737;SDS011;29398;45.328;5.558;2023-04-04T01:42:40;5.00;;;4.50;;
7737;SDS011;29398;45.328;5.558;2023-04-04T01:43:43;4.50;;;4.15;;
7737;SDS011;29398;45.328;5.558;2023-04-04T01:44:46;4.68;;;4.20;;
7737;SDS011;29398;45.328;5.558;2023-04-04T01:45:53;5.28;;;4.53;;
7737;SDS011;29398;45.328;5.558;2023-04-04T01:46:55;4.75;;;4.35;;
7737;SDS011;29398;45.328;5.558;2023-04-04T01:47:57;5.38;;;4.88;;
7737;SDS011;29398;45.328;5.558;2023-04-04T01:48:59;4.95;;;4.50;;
7737;SDS011;29398;45.328;5.558;2023-04-04T01:50:04;4.63;;;4.20;;
7737;SDS011;29398;45.328;5.558;2023-04-04T01:51:07;5.07;;;4.68;;
7737;SDS011;29398;45.328;5.558;2023-04-04T01:52:08;5.28;;;4.78;;
7737;SDS011;29398;45.328;5.558;2023-04-04T01:53:11;5.38;;;4.93;;
7737;SDS011;29398;45.328;5.558;2023-04-04T01:54:12;4.97;;;4.50;;
7737;SDS011;29398;45.328;5.558;2023-04-04T01:55:14;5.38;;;4.88;;
7737;SDS011;29398;45.328;5.558;2023-04-04T01:56:15;5.07;;;4.60;;
7737;SDS011;29398;45.328;5.558;2023-04-04T01:57:19;5.50;;;5.00;;
7737;SDS011;29398;45.328;5.558;2023-04-04T01:58:21;5.40;;;4.82;;
7737;SDS011;29398;45.328;5.558;2023-04-04T01:59:24;4.97;;;4.57;;
7737;SDS011;29398;45.328;5.558;2023-04-04T02:00:25;4.63;;;4.22;;
7737;SDS011;29398;45.328;5.558;2023-04-04T02:01:27;4.75;;;4.40;;
7737;SDS011;29398;45.328;5.558;2023-04-04T02:02:28;5.40;;;4.90;;
7737;SDS011;29398;45.328;5.558;2023-04-04T02:03:30;5.50;;;5.00;;
7737;SDS011;29398;45.328;5.558;2023-04-04T02:04:31;4.47;;;4.13;;
7737;SDS011;29398;45.328;5.558;2023-04-04T02:05:34;5.70;;;5.20;;
7737;SDS011;29398;45.328;5.558;2023-04-04T02:06:35;5.80;;;5.20;;
7737;SDS011;29398;45.328;5.558;2023-04-04T02:07:38;6.15;;;5.55;;
7737;SDS011;29398;45.328;5.558;2023-04-04T02:08:49;5.57;;;5.07;;
7737;SDS011;29398;45.328;5.558;2023-04-04T02:09:52;5.45;;;4.40;;
7737;SDS011;29398;45.328;5.558;2023-04-04T02:10:55;4.90;;;4.50;;
7737;SDS011;29398;45.328;5.558;2023-04-04T02:11:58;5.50;;;5.00;;
7737;SDS011;29398;45.328;5.558;2023-04-04T02:13:01;5.13;;;4.72;;
7737;SDS011;29398;45.328;5.558;2023-04-04T02:14:03;5.18;;;4.78;;
7737;SDS011;29398;45.328;5.558;2023-04-04T02:15:05;5.20;;;4.80;;
7737;SDS011;29398;45.328;5.558;2023-04-04T02:16:08;5.95;;;5.28;;
7737;SDS011;29398;45.328;5.558;2023-04-04T02:17:09;5.45;;;4.95;;
7737;SDS011;29398;45.328;5.558;2023-04-04T02:18:11;5.40;;;4.90;;
7737;SDS011;29398;45.328;5.558;2023-04-04T02:19:12;6.00;;;5.00;;
7737;SDS011;29398;45.328;5.558;2023-04-04T02:20:14;5.53;;;5.07;;
7737;SDS011;29398;45.328;5.558;2023-04-04T02:21:17;5.45;;;4.95;;
7737;SDS011;29398;45.328;5.558;2023-04-04T02:22:20;4.63;;;4.22;;
7737;SDS011;29398;45.328;5.558;2023-04-04T02:23:21;5.93;;;5.43;;
7737;SDS011;29398;45.328;5.558;2023-04-04T02:24:23;5.38;;;4.95;;
7737;SDS011;29398;45.328;5.558;2023-04-04T02:25:24;5.50;;;5.10;;
7737;SDS011;29398;45.328;5.558;2023-04-04T02:26:27;5.00;;;4.60;;
7737;SDS011;29398;45.328;5.558;2023-04-04T02:27:28;5.53;;;4.90;;
7737;SDS011;29398;45.328;5.558;2023-04-04T02:28:31;5.55;;;5.05;;
7737;SDS011;29398;45.328;5.558;2023-04-04T02:29:32;6.43;;;4.65;;
7737;SDS011;29398;45.328;5.558;2023-04-04T02:30:34;5.68;;;5.18;;
7737;SDS011;29398;45.328;5.558;2023-04-04T02:31:37;5.28;;;4.88;;
7737;SDS011;29398;45.328;5.558;2023-04-04T02:32:41;5.85;;;5.30;;
7737;SDS011;29398;45.328;5.558;2023-04-04T02:33:46;5.50;;;5.00;;
7737;SDS011;29398;45.328;5.558;2023-04-04T02:34:51;5.70;;;5.13;;
7737;SDS011;29398;45.328;5.558;2023-04-04T02:35:55;5.53;;;5.03;;
7737;SDS011;29398;45.328;5.558;2023-04-04T02:36:57;6.13;;;5.53;;
7737;SDS011;29398;45.328;5.558;2023-04-04T02:37:58;6.10;;;5.55;;
7737;SDS011;29398;45.328;5.558;2023-04-04T02:39:10;5.57;;;4.93;;
7737;SDS011;29398;45.328;5.558;2023-04-04T02:40:13;5.82;;;5.25;;
7737;SDS011;29398;45.328;5.558;2023-04-04T02:41:15;6.30;;;5.68;;
7737;SDS011;29398;45.328;5.558;2023-04-04T02:42:16;5.30;;;4.90;;
7737;SDS011;29398;45.328;5.558;2023-04-04T02:43:18;6.10;;;5.50;;
7737;SDS011;29398;45.328;5.558;2023-04-04T02:44:23;5.85;;;5.35;;
7737;SDS011;29398;45.328;5.558;2023-04-04T02:45:26;5.53;;;5.03;;
7737;SDS011;29398;45.328;5.558;2023-04-04T02:46:36;4.90;;;4.50;;
7737;SDS011;29398;45.328;5.558;2023-04-04T02:47:41;5.60;;;5.20;;
7737;SDS011;29398;45.328;5.558;2023-04-04T02:48:49;5.82;;;5.32;;
7737;SDS011;29398;45.328;5.558;2023-04-04T02:49:51;5.35;;;4.82;;
7737;SDS011;29398;45.328;5.558;2023-04-04T02:50:52;5.55;;;5.05;;
7737;SDS011;29398;45.328;5.558;2023-04-04T02:51:54;5.70;;;5.28;;
7737;SDS011;29398;45.328;5.558;2023-04-04T02:53:00;5.78;;;5.28;;
7737;SDS011;29398;45.328;5.558;2023-04-04T02:54:05;5.97;;;5.38;;
7737;SDS011;29398;45.328;5.558;2023-04-04T02:55:13;5.55;;;5.05;;
7737;SDS011;29398;45.328;5.558;2023-04-04T02:56:16;5.55;;;4.95;;
7737;SDS011;29398;45.328;5.558;2023-04-04T02:57:17;6.28;;;4.60;;
7737;SDS011;29398;45.328;5.558;2023-04-04T02:58:19;5.45;;;5.05;;
7737;SDS011;29398;45.328;5.558;2023-04-04T02:59:20;6.65;;;5.03;;
7737;SDS011;29398;45.328;5.558;2023-04-04T03:00:23;5.18;;;4.72;;
7737;SDS011;29398;45.328;5.558;2023-04-04T03:01:25;5.82;;;5.32;;
7737;SDS011;29398;45.328;5.558;2023-04-04T03:02:27;6.13;;;5.57;;
7737;SDS011;29398;45.328;5.558;2023-04-04T03:03:28;5.70;;;5.18;;
7737;SDS011;29398;45.328;5.558;2023-04-04T03:04:31;5.90;;;5.30;;
7737;SDS011;29398;45.328;5.558;2023-04-04T03:05:32;6.03;;;5.47;;
7737;SDS011;29398;45.328;5.558;2023-04-04T03:06:35;5.63;;;5.15;;
7737;SDS011;29398;45.328;5.558;2023-04-04T03:07:37;5.70;;;5.20;;
7737;SDS011;29398;45.328;5.558;2023-04-04T03:08:38;5.72;;;5.22;;
7737;SDS011;29398;45.328;5.558;2023-04-04T03:09:40;5.25;;;4.85;;
7737;SDS011;29398;45.328;5.558;2023-04-04T03:10:44;6.25;;;5.63;;
7737;SDS011;29398;45.328;5.558;2023-04-04T03:11:45;5.93;;;5.43;;
7737;SDS011;29398;45.328;5.558;2023-04-04T03:12:48;6.10;;;5.50;;
7737;SDS011;29398;45.328;5.558;2023-04-04T03:13:49;5.53;;;5.00;;
7737;SDS011;29398;45.328;5.558;2023-04-04T03:14:55;5.85;;;5.32;;
7737;SDS011;29398;45.328;5.558;2023-04-04T03:15:58;5.75;;;5.25;;
7737;SDS011;29398;45.328;5.558;2023-04-04T03:17:04;5.28;;;4.78;;
7737;SDS011;29398;45.328;5.558;2023-04-04T03:18:05;5.65;;;5.15;;
7737;SDS011;29398;45.328;5.558;2023-04-04T03:19:08;5.75;;;5.20;;
7737;SDS011;29398;45.328;5.558;2023-04-04T03:20:10;5.30;;;4.85;;
7737;SDS011;29398;45.328;5.558;2023-04-04T03:21:13;5.53;;;4.80;;
7737;SDS011;29398;45.328;5.558;2023-04-04T03:22:15;6.00;;;5.30;;
7737;SDS011;29398;45.328;5.558;2023-04-04T03:23:18;5.53;;;5.13;;
7737;SDS011;29398;45.328;5.558;2023-04-04T03:24:19;6.20;;;5.60;;
7737;SDS011;29398;45.328;5.558;2023-04-04T03:25:21;5.40;;;5.00;;
7737;SDS011;29398;45.328;5.558;2023-04-04T03:26:22;5.43;;;4.65;;
7737;SDS011;29398;45.328;5.558;2023-04-04T03:27:27;5.15;;;4.75;;
7737;SDS011;29398;45.328;5.558;2023-04-04T03:28:30;5.63;;;5.13;;
7737;SDS011;29398;45.328;5.558;2023-04-04T03:29:34;6.28;;;5.68;;
7737;SDS011;29398;45.328;5.558;2023-04-04T03:30:36;5.63;;;5.07;;
7737;SDS011;29398;45.328;5.558;2023-04-04T03:31:39;5.05;;;4.65;;
7737;SDS011;29398;45.328;5.558;2023-04-04T03:32:40;6.55;;;5.20;;
7737;SDS011;29398;45.328;5.558;2023-04-04T03:33:42;5.82;;;5.32;;
7737;SDS011;29398;45.328;5.558;2023-04-04T03:34:44;5.03;;;4.63;;
7737;SDS011;29398;45.328;5.558;2023-04-04T03:35:46;6.00;;;5.50;;
7737;SDS011;29398;45.328;5.558;2023-04-04T03:36:47;5.72;;;5.20;;
7737;SDS011;29398;45.328;5.558;2023-04-04T03:37:49;5.80;;;5.30;;
7737;SDS011;29398;45.328;5.558;2023-04-04T03:38:50;6.18;;;5.50;;
7737;SDS011;29398;45.328;5.558;2023-04-04T03:39:52;5.57;;;5.07;;
7737;SDS011;29398;45.328;5.558;2023-04-04T03:40:59;5.50;;;5.00;;
7737;SDS011;29398;45.328;5.558;2023-04-04T03:42:02;6.47;;;5.30;;
7737;SDS011;29398;45.328;5.558;2023-04-04T03:43:05;5.40;;;4.90;;
7737;SDS011;29398;45.328;5.558;2023-04-04T03:44:08;5.18;;;4.78;;
7737;SDS011;29398;45.328;5.558;2023-04-04T03:45:09;7.32;;;5.65;;
7737;SDS011;29398;45.328;5.558;2023-04-04T03:46:12;6.40;;;5.50;;
7737;SDS011;29398;45.328;5.558;2023-04-04T03:47:15;5.78;;;5.28;;
7737;SDS011;29398;45.328;5.558;2023-04-04T03:48:17;5.72;;;5.22;;
7737;SDS011;29398;45.328;5.558;2023-04-04T03:49:18;5.78;;;5.30;;
7737;SDS011;29398;45.328;5.558;2023-04-04T03:50:20;6.25;;;5.65;;
7737;SDS011;29398;45.328;5.558;2023-04-04T03:51:25;5.55;;;5.05;;
7737;SDS011;29398;45.328;5.558;2023-04-04T03:52:28;5.75;;;5.30;;
7737;SDS011;29398;45.328;5.558;2023-04-04T03:53:29;5.55;;;5.05;;
7737;SDS011;29398;45.328;5.558;2023-04-04T03:54:31;6.63;;;5.18;;
7737;SDS011;29398;45.328;5.558;2023-04-04T03:55:33;9.35;;;5.30;;
7737;SDS011;29398;45.328;5.558;2023-04-04T03:56:35;5.80;;;5.28;;
7737;SDS011;29398;45.328;5.558;2023-04-04T03:57:38;5.72;;;5.18;;
7737;SDS011;29398;45.328;5.558;2023-04-04T03:58:44;6.00;;;5.50;;
7737;SDS011;29398;45.328;5.558;2023-04-04T03:59:50;6.13;;;5.53;;
7737;SDS011;29398;45.328;5.558;2023-04-04T04:00:54;6.22;;;5.63;;
7737;SDS011;29398;45.328;5.558;2023-04-04T04:01:57;6.30;;;5.70;;
7737;SDS011;29398;45.328;5.558;2023-04-04T04:03:00;5.80;;;5.30;;
7737;SDS011;29398;45.328;5.558;2023-04-04T04:04:01;5.85;;;5.28;;
7737;SDS011;29398;45.328;5.558;2023-04-04T04:05:03;7.20;;;5.40;;
7737;SDS011;29398;45.328;5.558;2023-04-04T04:06:05;6.40;;;5.80;;
7737;SDS011;29398;45.328;5.558;2023-04-04T04:07:07;6.25;;;5.63;;
7737;SDS011;29398;45.328;5.558;2023-04-04T04:08:08;5.82;;;5.28;;
7737;SDS011;29398;45.328;5.558;2023-04-04T04:09:12;6.35;;;5.40;;
7737;SDS011;29398;45.328;5.558;2023-04-04T04:10:13;6.20;;;5.60;;
7737;SDS011;29398;45.328;5.558;2023-04-04T04:11:16;5.90;;;5.30;;
7737;SDS011;29398;45.328;5.558;2023-04-04T04:12:17;5.50;;;5.00;;
7737;SDS011;29398;45.328;5.558;2023-04-04T04:13:19;6.70;;;6.10;;
7737;SDS011;29398;45.328;5.558;2023-04-04T04:14:21;6.78;;;5.60;;
7737;SDS011;29398;45.328;5.558;2023-04-04T04:15:23;5.90;;;5.40;;
7737;SDS011;29398;45.328;5.558;2023-04-04T04:16:24;5.93;;;5.32;;
7737;SDS011;29398;45.328;5.558;2023-04-04T04:17:27;6.22;;;5.68;;
7737;SDS011;29398;45.328;5.558;2023-04-04T04:18:30;6.90;;;5.85;;
7737;SDS011;29398;45.328;5.558;2023-04-04T04:19:33;6.97;;;5.60;;
7737;SDS011;29398;45.328;5.558;2023-04-04T04:20:34;5.53;;;5.10;;
7737;SDS011;29398;45.328;5.558;2023-04-04T04:21:36;5.88;;;5.25;;
7737;SDS011;29398;45.328;5.558;2023-04-04T04:22:37;5.65;;;5.15;;
7737;SDS011;29398;45.328;5.558;2023-04-04T04:23:39;5.40;;;4.90;;
7737;SDS011;29398;45.328;5.558;2023-04-04T04:24:40;5.72;;;5.22;;
7737;SDS011;29398;45.328;5.558;2023-04-04T04:25:42;7.28;;;5.65;;
7737;SDS011;29398;45.328;5.558;2023-04-04T04:26:50;5.97;;;5.47;;
7737;SDS011;29398;45.328;5.558;2023-04-04T04:27:53;5.97;;;5.38;;
7737;SDS011;29398;45.328;5.558;2023-04-04T04:28:56;6.50;;;5.90;;
7737;SDS011;29398;45.328;5.558;2023-04-04T04:30:04;5.97;;;5.43;;
7737;SDS011;29398;45.328;5.558;2023-04-04T04:31:11;6.82;;;5.40;;
7737;SDS011;29398;45.328;5.558;2023-04-04T04:32:17;6.18;;;5.57;;
7737;SDS011;29398;45.328;5.558;2023-04-04T04:33:26;5.95;;;5.38;;
7737;SDS011;29398;45.328;5.558;2023-04-04T04:34:33;7.43;;;6.28;;
7737;SDS011;29398;45.328;5.558;2023-04-04T04:35:36;6.65;;;5.68;;
7737;SDS011;29398;45.328;5.558;2023-04-04T04:36:37;8.43;;;5.38;;
7737;SDS011;29398;45.328;5.558;2023-04-04T04:37:52;5.80;;;5.20;;
7737;SDS011;29398;45.328;5.558;2023-04-04T04:38:55;5.80;;;5.28;;
7737;SDS011;29398;45.328;5.558;2023-04-04T04:40:01;6.30;;;5.43;;
7737;SDS011;29398;45.328;5.558;2023-04-04T04:41:13;5.95;;;5.13;;
7737;SDS011;29398;45.328;5.558;2023-04-04T04:42:19;5.95;;;5.35;;
7737;SDS011;29398;45.328;5.558;2023-04-04T04:43:26;5.85;;;5.35;;
7737;SDS011;29398;45.328;5.558;2023-04-04T04:44:28;6.40;;;5.72;;
7737;SDS011;29398;45.328;5.558;2023-04-04T04:45:30;5.30;;;4.80;;
7737;SDS011;29398;45.328;5.558;2023-04-04T04:46:39;6.20;;;5.45;;
7737;SDS011;29398;45.328;5.558;2023-04-04T04:47:46;6.03;;;5.43;;
7737;SDS011;29398;45.328;5.558;2023-04-04T04:48:51;5.40;;;4.97;;
7737;SDS011;29398;45.328;5.558;2023-04-04T04:49:59;6.90;;;5.13;;
7737;SDS011;29398;45.328;5.558;2023-04-04T04:51:09;6.30;;;5.07;;
7737;SDS011;29398;45.328;5.558;2023-04-04T04:52:16;5.55;;;5.00;;
7737;SDS011;29398;45.328;5.558;2023-04-04T04:53:18;6.03;;;5.47;;
7737;SDS011;29398;45.328;5.558;2023-04-04T04:54:21;5.90;;;5.28;;
7737;SDS011;29398;45.328;5.558;2023-04-04T04:55:28;5.80;;;5.28;;
7737;SDS011;29398;45.328;5.558;2023-04-04T04:56:37;7.47;;;5.93;;
7737;SDS011;29398;45.328;5.558;2023-04-04T04:57:44;6.05;;;5.50;;
7737;SDS011;29398;45.328;5.558;2023-04-04T04:58:51;6.05;;;5.45;;
7737;SDS011;29398;45.328;5.558;2023-04-04T04:59:56;6.53;;;5.65;;
7737;SDS011;29398;45.328;5.558;2023-04-04T05:01:01;7.15;;;5.80;;
7737;SDS011;29398;45.328;5.558;2023-04-04T05:02:12;6.13;;;5.53;;
7737;SDS011;29398;45.328;5.558;2023-04-04T05:03:17;6.65;;;5.95;;
7737;SDS011;29398;45.328;5.558;2023-04-04T05:04:22;6.10;;;5.60;;
7737;SDS011;29398;45.328;5.558;2023-04-04T05:05:35;6.13;;;5.50;;
7737;SDS011;29398;45.328;5.558;2023-04-04T05:06:42;6.50;;;5.80;;
7737;SDS011;29398;45.328;5.558;2023-04-04T05:07:45;6.78;;;5.28;;
7737;SDS011;29398;45.328;5.558;2023-04-04T05:08:47;6.10;;;5.50;;
7737;SDS011;29398;45.328;5.558;2023-04-04T05:14:27;6.45;;;5.60;;
7737;SDS011;29398;45.328;5.558;2023-04-04T05:15:31;6.10;;;5.55;;
7737;SDS011;29398;45.328;5.558;2023-04-04T05:16:32;6.47;;;5.85;;
7737;SDS011;29398;45.328;5.558;2023-04-04T05:17:35;5.70;;;5.20;;
7737;SDS011;29398;45.328;5.558;2023-04-04T05:18:39;6.40;;;5.80;;
7737;SDS011;29398;45.328;5.558;2023-04-04T05:19:44;6.07;;;5.50;;
7737;SDS011;29398;45.328;5.558;2023-04-04T05:20:52;7.05;;;6.35;;
7737;SDS011;29398;45.328;5.558;2023-04-04T05:21:57;7.07;;;6.32;;
7737;SDS011;29398;45.328;5.558;2023-04-04T05:23:05;6.57;;;5.97;;
7737;SDS011;29398;45.328;5.558;2023-04-04T05:24:12;6.25;;;5.65;;
7737;SDS011;29398;45.328;5.558;2023-04-04T05:25:13;6.65;;;5.60;;
7737;SDS011;29398;45.328;5.558;2023-04-04T05:26:19;6.90;;;5.63;;
7737;SDS011;29398;45.328;5.558;2023-04-04T05:27:23;5.97;;;5.43;;
7737;SDS011;29398;45.328;5.558;2023-04-04T05:28:30;7.25;;;6.10;;
7737;SDS011;29398;45.328;5.558;2023-04-04T05:29:35;6.60;;;6.00;;
7737;SDS011;29398;45.328;5.558;2023-04-04T05:30:38;6.80;;;6.10;;
7737;SDS011;29398;45.328;5.558;2023-04-04T05:32:05;7.72;;;6.30;;
7737;SDS011;29398;45.328;5.558;2023-04-04T05:33:09;6.63;;;5.93;;
7737;SDS011;29398;45.328;5.558;2023-04-04T05:34:13;8.52;;;6.45;;
7737;SDS011;29398;45.328;5.558;2023-04-04T05:35:16;6.78;;;6.07;;
7737;SDS011;29398;45.328;5.558;2023-04-04T05:36:18;6.78;;;6.07;;
7737;SDS011;29398;45.328;5.558;2023-04-04T05:37:26;6.80;;;6.20;;
7737;SDS011;29398;45.328;5.558;2023-04-04T05:38:28;7.78;;;6.13;;
7737;SDS011;29398;45.328;5.558;2023-04-04T05:39:30;6.72;;;6.20;;
7737;SDS011;29398;45.328;5.558;2023-04-04T05:40:37;7.88;;;6.43;;
7737;SDS011;29398;45.328;5.558;2023-04-04T05:41:43;8.43;;;5.93;;
7737;SDS011;29398;45.328;5.558;2023-04-04T05:42:52;7.25;;;6.60;;
7737;SDS011;29398;45.328;5.558;2023-04-04T05:43:56;9.23;;;6.50;;
7737;SDS011;29398;45.328;5.558;2023-04-04T05:44:58;7.82;;;6.03;;
7737;SDS011;29398;45.328;5.558;2023-04-04T05:46:03;7.63;;;6.70;;
7737;SDS011;29398;45.328;5.558;2023-04-04T05:47:11;8.50;;;6.57;;
7737;SDS011;29398;45.328;5.558;2023-04-04T05:48:17;8.05;;;6.53;;
7737;SDS011;29398;45.328;5.558;2023-04-04T05:49:25;7.38;;;6.68;;
7737;SDS011;29398;45.328;5.558;2023-04-04T05:50:32;6.95;;;6.30;;
7737;SDS011;29398;45.328;5.558;2023-04-04T05:51:38;7.07;;;6.38;;
7737;SDS011;29398;45.328;5.558;2023-04-04T05:52:48;8.48;;;6.35;;
7737;SDS011;29398;45.328;5.558;2023-04-04T05:53:50;6.90;;;6.05;;
7737;SDS011;29398;45.328;5.558;2023-04-04T05:54:56;7.47;;;6.03;;
7737;SDS011;29398;45.328;5.558;2023-04-04T05:56:02;6.60;;;6.00;;
7737;SDS011;29398;45.328;5.558;2023-04-04T05:57:06;6.75;;;5.97;;
7737;SDS011;29398;45.328;5.558;2023-04-04T05:58:29;10.23;;;6.53;;
7737;SDS011;29398;45.328;5.558;2023-04-04T05:59:32;7.47;;;6.75;;
7737;SDS011;29398;45.328;5.558;2023-04-04T06:00:37;7.38;;;6.55;;
7737;SDS011;29398;45.328;5.558;2023-04-04T06:01:41;7.82;;;6.70;;
7737;SDS011;29398;45.328;5.558;2023-04-04T06:02:47;8.85;;;6.70;;
7737;SDS011;29398;45.328;5.558;2023-04-04T06:03:51;6.97;;;5.93;;
7737;SDS011;29398;45.328;5.558;2023-04-04T06:04:59;7.57;;;6.60;;
7737;SDS011;29398;45.328;5.558;2023-04-04T06:06:09;8.43;;;6.47;;
7737;SDS011;29398;45.328;5.558;2023-04-04T06:07:12;8.73;;;6.57;;
7737;SDS011;29398;45.328;5.558;2023-04-04T06:08:15;7.05;;;6.35;;
7737;SDS011;29398;45.328;5.558;2023-04-04T06:09:18;7.13;;;6.20;;
7737;SDS011;29398;45.328;5.558;2023-04-04T06:10:19;8.45;;;6.75;;
7737;SDS011;29398;45.328;5.558;2023-04-04T06:11:21;6.95;;;6.25;;
7737;SDS011;29398;45.328;5.558;2023-04-04T06:12:25;7.47;;;6.72;;
7737;SDS011;29398;45.328;5.558;2023-04-04T06:13:27;7.78;;;6.70;;
7737;SDS011;29398;45.328;5.558;2023-04-04T06:14:34;7.55;;;6.75;;
7737;SDS011;29398;45.328;5.558;2023-04-04T06:15:38;6.68;;;6.07;;
7737;SDS011;29398;45.328;5.558;2023-04-04T06:16:40;7.38;;;6.60;;
7737;SDS011;29398;45.328;5.558;2023-04-04T06:17:41;7.30;;;6.60;;
7737;SDS011;29398;45.328;5.558;2023-04-04T06:18:44;8.25;;;6.78;;
7737;SDS011;29398;45.328;5.558;2023-04-04T06:19:47;7.07;;;6.35;;
7737;SDS011;29398;45.328;5.558;2023-04-04T06:20:49;7.18;;;6.32;;
7737;SDS011;29398;45.328;5.558;2023-04-04T06:21:51;7.53;;;6.35;;
7737;SDS011;29398;45.328;5.558;2023-04-04T06:22:55;8.57;;;6.70;;
7737;SDS011;29398;45.328;5.558;2023-04-04T06:23:57;7.75;;;6.95;;
7737;SDS011;29398;45.328;5.558;2023-04-04T06:24:58;7.68;;;5.93;;
7737;SDS011;29398;45.328;5.558;2023-04-04T06:26:01;8.13;;;6.38;;
7737;SDS011;29398;45.328;5.558;2023-04-04T06:27:02;6.68;;;6.07;;
7737;SDS011;29398;45.328;5.558;2023-04-04T06:28:06;7.40;;;5.78;;
7737;SDS011;29398;45.328;5.558;2023-04-04T06:29:09;6.45;;;5.72;;
7737;SDS011;29398;45.328;5.558;2023-04-04T06:30:12;5.93;;;5.32;;
7737;SDS011;29398;45.328;5.558;2023-04-04T06:31:17;6.00;;;5.38;;
7737;SDS011;29398;45.328;5.558;2023-04-04T06:32:20;5.85;;;5.28;;
7737;SDS011;29398;45.328;5.558;2023-04-04T06:33:22;6.50;;;5.78;;